Time;durP1;ratioP1;P1;durP2;ratioP2;P2;SDS_P1;SDS_P2;PMS_P1;PMS_P2;Temp;Humidity;BMP_temperature;BMP_pressure;BME280_temperature;BME280_humidity;BME280_pressure;Samples;Min_cycle;Max_cycle;Signal;HPM_P1;HPM_P2
2022/07/25 00:01:01;;;;;;;92.10;87.43;;;;;;;;;;5045471;28;20210;-68
2022/07/25 00:03:26;;;;;;;78.75;74.75;;;;;;;;;;5047316;28;20107;-68
2022/07/25 00:05:52;;;;;;;71.78;67.85;;;;;;;;;;5039919;28;20061;-67
2022/07/25 00:08:17;;;;;;;60.15;57.10;;;;;;;;;;5039032;28;20115;-67
2022/07/25 00:10:43;;;;;;;57.65;54.70;;;;;;;;;;5041929;28;20060;-67
2022/07/25 00:13:08;;;;;;;55.53;52.60;;;;;;;;;;5041735;28;20036;-70
2022/07/25 00:15:34;;;;;;;64.82;61.55;;;;;;;;;;5040811;28;20025;-71
2022/07/25 00:17:59;;;;;;;54.08;51.33;;;;;;;;;;5042516;28;20462;-71
2022/07/25 00:20:25;;;;;;;47.45;45.00;;;;;;;;;;5044914;28;20029;-70
2022/07/25 00:22:50;;;;;;;45.83;43.45;;;;;;;;;;5041961;28;20033;-70
2022/07/25 00:25:15;;;;;;;41.97;39.78;;;;;;;;;;5039848;28;20021;-70
2022/07/25 00:27:41;;;;;;;42.05;39.80;;;;;;;;;;5046020;28;20079;-67
2022/07/25 00:30:07;;;;;;;46.78;44.38;;;;;;;;;;5041280;28;20030;-67
2022/07/25 00:32:32;;;;;;;46.53;44.13;;;;;;;;;;5037485;28;20040;-68
2022/07/25 00:34:58;;;;;;;34.70;32.83;;;;;;;;;;5042909;28;20029;-69
2022/07/25 00:37:23;;;;;;;43.42;40.97;;;;;;;;;;5041697;28;20037;-70
2022/07/25 00:39:48;;;;;;;36.92;34.92;;;;;;;;;;5040050;28;20041;-71
2022/07/25 00:42:14;;;;;;;28.58;26.98;;;;;;;;;;5037237;28;20030;-71
2022/07/25 00:44:39;;;;;;;28.77;27.23;;;;;;;;;;5041769;28;20037;-71
2022/07/25 00:47:05;;;;;;;28.67;27.08;;;;;;;;;;5043934;28;20517;-70
2022/07/25 00:49:30;;;;;;;25.65;24.25;;;;;;;;;;5039490;28;20056;-71
2022/07/25 00:51:55;;;;;;;28.98;27.38;;;;;;;;;;5041423;28;20056;-72
2022/07/25 00:54:21;;;;;;;29.13;27.52;;;;;;;;;;5043402;28;20029;-73
2022/07/25 00:56:47;;;;;;;29.75;28.15;;;;;;;;;;5044372;28;20086;-71
2022/07/25 00:59:13;;;;;;;32.40;30.60;;;;;;;;;;5040631;28;20097;-72
2022/07/25 01:01:39;;;;;;;28.25;26.75;;;;;;;;;;5046027;28;20045;-70
2022/07/25 01:04:05;;;;;;;25.75;24.30;;;;;;;;;;5039366;28;20056;-72
2022/07/25 01:06:31;;;;;;;23.77;22.48;;;;;;;;;;5037729;28;20410;-72
2022/07/25 01:08:57;;;;;;;27.23;25.52;;;;;;;;;;5037674;28;20880;-69
2022/07/25 01:11:23;;;;;;;27.63;26.08;;;;;;;;;;5038249;28;20036;-69
2022/07/25 01:13:48;;;;;;;24.35;23.05;;;;;;;;;;5037334;28;20120;-69
2022/07/25 01:16:14;;;;;;;25.33;23.92;;;;;;;;;;5034096;28;20574;-69
2022/07/25 01:18:39;;;;;;;23.27;21.98;;;;;;;;;;5044007;28;20584;-68
2022/07/25 01:21:05;;;;;;;27.05;25.30;;;;;;;;;;5047146;28;20025;-68
2022/07/25 01:23:30;;;;;;;24.88;23.55;;;;;;;;;;5048014;28;20031;-68
2022/07/25 01:25:56;;;;;;;28.25;26.73;;;;;;;;;;5043298;28;20163;-68
2022/07/25 01:28:21;;;;;;;32.17;30.33;;;;;;;;;;5041520;28;20044;-69
2022/07/25 01:30:47;;;;;;;29.10;27.48;;;;;;;;;;5041807;28;20033;-69
2022/07/25 01:33:16;;;;;;;33.42;31.65;;;;;;;;;;5041054;28;20522;-69
2022/07/25 01:35:42;;;;;;;30.65;29.02;;;;;;;;;;5046902;28;20029;-71
2022/07/25 01:38:07;;;;;;;33.33;31.45;;;;;;;;;;5044994;28;20017;-71
2022/07/25 01:40:33;;;;;;;34.13;32.08;;;;;;;;;;5039798;28;20031;-69
2022/07/25 01:42:58;;;;;;;29.17;27.52;;;;;;;;;;5039790;28;20043;-69
2022/07/25 01:45:23;;;;;;;32.50;30.80;;;;;;;;;;5044068;28;20068;-69
2022/07/25 01:47:49;;;;;;;36.03;34.17;;;;;;;;;;5039953;28;20074;-69
2022/07/25 01:50:14;;;;;;;38.00;36.03;;;;;;;;;;5041385;28;20115;-69
2022/07/25 01:52:40;;;;;;;33.38;31.60;;;;;;;;;;5047050;28;20037;-70
2022/07/25 01:55:06;;;;;;;34.03;32.25;;;;;;;;;;5047779;28;20443;-70
2022/07/25 01:57:31;;;;;;;39.25;37.17;;;;;;;;;;5043368;28;20029;-71
2022/07/25 01:59:58;;;;;;;32.78;31.05;;;;;;;;;;5043179;28;20048;-71
2022/07/25 02:02:24;;;;;;;34.50;32.70;;;;;;;;;;5045961;28;20045;-70
2022/07/25 02:04:49;;;;;;;39.05;37.00;;;;;;;;;;5039705;28;20044;-70
2022/07/25 02:07:14;;;;;;;38.03;36.00;;;;;;;;;;5038882;28;20025;-70
2022/07/25 02:09:40;;;;;;;34.17;32.28;;;;;;;;;;5044583;28;20044;-70
2022/07/25 02:12:06;;;;;;;33.13;31.35;;;;;;;;;;5042824;28;20029;-70
2022/07/25 02:14:32;;;;;;;34.95;33.15;;;;;;;;;;5043352;28;20462;-70
2022/07/25 02:16:57;;;;;;;32.00;30.23;;;;;;;;;;5039375;28;20090;-70
2022/07/25 02:19:23;;;;;;;37.28;35.33;;;;;;;;;;5043585;28;20126;-70
2022/07/25 02:21:48;;;;;;;37.72;35.70;;;;;;;;;;5043683;28;20029;-70
2022/07/25 02:24:13;;;;;;;34.60;32.60;;;;;;;;;;5043523;28;20610;-70
2022/07/25 02:26:39;;;;;;;38.42;36.40;;;;;;;;;;5041537;28;20515;-70
2022/07/25 02:29:04;;;;;;;33.88;32.08;;;;;;;;;;5043830;28;20021;-69
2022/07/25 02:31:29;;;;;;;33.00;31.30;;;;;;;;;;5048154;28;20372;-69
2022/07/25 02:33:55;;;;;;;35.85;33.90;;;;;;;;;;5044739;28;20043;-69
2022/07/25 02:36:20;;;;;;;34.75;32.95;;;;;;;;;;5041524;28;20068;-69
2022/07/25 02:38:45;;;;;;;29.10;27.55;;;;;;;;;;5042100;28;20033;-69
2022/07/25 02:41:11;;;;;;;29.15;27.58;;;;;;;;;;5048818;28;20060;-70
2022/07/25 02:43:36;;;;;;;26.27;24.80;;;;;;;;;;5039348;28;20080;-71
2022/07/25 02:46:02;;;;;;;29.83;28.25;;;;;;;;;;5041005;28;20401;-70
2022/07/25 02:48:27;;;;;;;26.33;24.58;;;;;;;;;;5038555;28;20036;-70
2022/07/25 02:50:53;;;;;;;25.10;23.70;;;;;;;;;;5040844;28;20131;-70
2022/07/25 02:53:18;;;;;;;19.95;18.85;;;;;;;;;;5040922;28;20073;-70
2022/07/25 02:55:44;;;;;;;26.35;20.77;;;;;;;;;;5041938;28;20087;-69
2022/07/25 02:58:09;;;;;;;19.73;18.58;;;;;;;;;;5041653;28;20128;-70
2022/07/25 03:00:35;;;;;;;17.48;16.40;;;;;;;;;;5041154;28;20053;-69
2022/07/25 03:03:01;;;;;;;18.27;17.23;;;;;;;;;;5043375;28;20083;-69
2022/07/25 03:05:27;;;;;;;17.13;16.13;;;;;;;;;;5044844;28;20463;-69
2022/07/25 03:07:52;;;;;;;26.33;24.92;;;;;;;;;;5041313;28;20116;-70
2022/07/25 03:10:17;;;;;;;26.85;25.35;;;;;;;;;;5040027;28;20494;-69
2022/07/25 03:12:43;;;;;;;25.55;24.15;;;;;;;;;;5042885;28;20511;-70
2022/07/25 03:15:10;;;;;;;24.08;22.77;;;;;;;;;;5040503;28;20041;-69
2022/07/25 03:17:38;;;;;;;24.50;23.15;;;;;;;;;;5039356;28;20029;-69
2022/07/25 03:20:05;;;;;;;26.25;24.67;;;;;;;;;;5028819;28;20033;-69
2022/07/25 03:22:31;;;;;;;25.45;24.05;;;;;;;;;;5037230;28;20037;-69
2022/07/25 03:24:56;;;;;;;21.38;20.17;;;;;;;;;;5038990;28;20360;-70
2022/07/25 03:27:21;;;;;;;24.63;23.20;;;;;;;;;;5039066;28;20506;-69
2022/07/25 03:29:47;;;;;;;26.90;25.30;;;;;;;;;;5043472;28;20033;-69
2022/07/25 03:32:12;;;;;;;28.98;27.42;;;;;;;;;;5043967;28;20116;-70
2022/07/25 03:34:38;;;;;;;31.35;29.58;;;;;;;;;;5041133;28;20133;-71
2022/07/25 03:37:04;;;;;;;30.20;28.55;;;;;;;;;;5046294;28;20031;-71
2022/07/25 03:39:30;;;;;;;26.60;25.17;;;;;;;;;;5047759;28;20059;-72
2022/07/25 03:41:55;;;;;;;26.25;24.85;;;;;;;;;;5041098;28;20065;-71
2022/07/25 03:44:22;;;;;;;22.55;21.17;;;;;;;;;;5040863;28;20024;-70
2022/07/25 03:46:48;;;;;;;29.52;27.83;;;;;;;;;;5038326;28;20116;-70
2022/07/25 03:49:13;;;;;;;26.17;24.75;;;;;;;;;;5042282;28;20120;-69
2022/07/25 03:51:39;;;;;;;32.13;30.15;;;;;;;;;;5042899;28;20116;-69
2022/07/25 03:54:05;;;;;;;28.17;26.55;;;;;;;;;;5038141;28;20037;-69
2022/07/25 03:56:35;;;;;;;28.65;27.05;;;;;;;;;;5039978;28;20087;-69
2022/07/25 03:59:01;;;;;;;26.90;25.38;;;;;;;;;;5039829;28;20659;-69
2022/07/25 04:01:26;;;;;;;31.65;29.85;;;;;;;;;;5035707;28;20116;-70
2022/07/25 04:03:52;;;;;;;33.88;32.10;;;;;;;;;;5040771;28;22335;-68
2022/07/25 04:06:18;;;;;;;27.73;26.25;;;;;;;;;;5038436;28;20044;-68
2022/07/25 04:08:43;;;;;;;29.30;27.70;;;;;;;;;;5038154;28;20647;-68
2022/07/25 04:11:08;;;;;;;27.45;25.80;;;;;;;;;;5040956;28;20037;-68
2022/07/25 04:13:34;;;;;;;28.27;26.70;;;;;;;;;;5043087;28;20108;-68
2022/07/25 04:15:59;;;;;;;27.38;25.88;;;;;;;;;;5038950;28;20079;-68
2022/07/25 04:18:24;;;;;;;25.55;24.20;;;;;;;;;;5040468;28;20106;-68
2022/07/25 04:20:50;;;;;;;20.10;19.00;;;;;;;;;;5041497;28;20977;-68
2022/07/25 04:23:15;;;;;;;25.38;23.77;;;;;;;;;;5040931;28;20025;-68
2022/07/25 04:25:40;;;;;;;23.85;22.52;;;;;;;;;;5043875;28;20068;-68
2022/07/25 04:28:06;;;;;;;23.35;22.05;;;;;;;;;;5043608;28;20056;-68
2022/07/25 04:30:31;;;;;;;25.35;23.95;;;;;;;;;;5040642;28;20060;-68
2022/07/25 04:32:57;;;;;;;25.98;24.45;;;;;;;;;;5044431;28;20112;-68
2022/07/25 04:35:22;;;;;;;23.13;21.42;;;;;;;;;;5040821;28;20060;-68
2022/07/25 04:37:48;;;;;;;28.63;27.02;;;;;;;;;;5040717;28;20091;-67
2022/07/25 04:40:13;;;;;;;29.65;28.00;;;;;;;;;;5047735;28;20418;-67
2022/07/25 04:42:39;;;;;;;25.63;24.20;;;;;;;;;;5039428;28;20548;-68
2022/07/25 04:45:05;;;;;;;26.58;25.13;;;;;;;;;;5041286;28;20532;-67
2022/07/25 04:47:30;;;;;;;26.77;25.20;;;;;;;;;;5044689;28;20120;-67
2022/07/25 04:49:55;;;;;;;29.85;28.02;;;;;;;;;;5041883;28;20410;-67
2022/07/25 04:52:21;;;;;;;27.33;25.63;;;;;;;;;;5041325;28;20025;-67
2022/07/25 04:54:46;;;;;;;25.88;24.35;;;;;;;;;;5041655;28;20072;-67
2022/07/25 04:57:12;;;;;;;26.80;25.10;;;;;;;;;;5045629;28;20052;-67
2022/07/25 04:59:37;;;;;;;26.25;24.80;;;;;;;;;;5042260;28;20048;-67
2022/07/25 05:02:03;;;;;;;27.08;25.63;;;;;;;;;;5043051;28;20042;-67
2022/07/25 05:04:28;;;;;;;23.10;21.80;;;;;;;;;;5044337;28;20032;-66
2022/07/25 05:06:53;;;;;;;29.30;27.77;;;;;;;;;;5047830;28;20051;-67
2022/07/25 05:09:19;;;;;;;27.10;25.60;;;;;;;;;;5043235;28;20477;-67
2022/07/25 05:11:44;;;;;;;23.40;22.10;;;;;;;;;;5041763;28;20064;-67
2022/07/25 05:14:10;;;;;;;20.88;19.58;;;;;;;;;;5047064;28;20124;-67
2022/07/25 05:16:35;;;;;;;22.80;21.25;;;;;;;;;;5045437;28;20065;-67
2022/07/25 05:19:00;;;;;;;18.10;17.10;;;;;;;;;;5047523;28;20037;-67
2022/07/25 05:21:26;;;;;;;23.65;22.35;;;;;;;;;;5043789;28;20456;-67
2022/07/25 05:23:52;;;;;;;22.90;21.40;;;;;;;;;;5045906;28;20425;-67
2022/07/25 05:26:17;;;;;;;22.40;21.10;;;;;;;;;;5039166;28;20025;-67
2022/07/25 05:28:43;;;;;;;18.25;17.15;;;;;;;;;;5042058;28;20029;-67
2022/07/25 05:31:08;;;;;;;21.67;20.45;;;;;;;;;;5043208;28;20522;-67
2022/07/25 05:33:34;;;;;;;21.45;20.15;;;;;;;;;;5042764;28;20095;-65
2022/07/25 05:36:00;;;;;;;22.25;21.02;;;;;;;;;;5040897;28;20367;-66
2022/07/25 05:38:25;;;;;;;23.33;21.92;;;;;;;;;;5048649;28;20021;-65
2022/07/25 05:40:51;;;;;;;22.05;20.75;;;;;;;;;;5048960;28;20039;-65
2022/07/25 05:43:17;;;;;;;24.83;23.42;;;;;;;;;;5048818;28;20062;-65
2022/07/25 05:45:43;;;;;;;29.63;28.00;;;;;;;;;;5041771;28;20132;-65
2022/07/25 05:48:08;;;;;;;31.33;29.55;;;;;;;;;;5044682;28;20557;-65
2022/07/25 05:50:36;;;;;;;20.48;19.30;;;;;;;;;;5044869;28;20052;-67
2022/07/25 05:53:01;;;;;;;23.13;21.67;;;;;;;;;;5043004;28;20112;-66
2022/07/25 05:55:26;;;;;;;23.88;22.55;;;;;;;;;;5045832;28;20144;-65
2022/07/25 05:57:52;;;;;;;24.20;22.85;;;;;;;;;;5043883;28;20111;-64
2022/07/25 06:00:17;;;;;;;26.63;25.10;;;;;;;;;;5042870;28;20569;-66
2022/07/25 06:02:43;;;;;;;21.23;20.05;;;;;;;;;;5041082;28;20039;-65
2022/07/25 06:05:08;;;;;;;23.40;22.10;;;;;;;;;;5038828;28;20116;-66
2022/07/25 06:07:33;;;;;;;23.20;21.90;;;;;;;;;;5037610;28;20466;-66
2022/07/25 06:09:59;;;;;;;27.02;25.58;;;;;;;;;;5041471;28;20120;-65
2022/07/25 06:12:24;;;;;;;26.25;24.83;;;;;;;;;;5041498;28;20032;-65
2022/07/25 06:14:50;;;;;;;26.23;24.75;;;;;;;;;;5042490;28;20040;-65
2022/07/25 06:17:15;;;;;;;24.98;23.60;;;;;;;;;;5041414;28;20041;-65
2022/07/25 06:19:41;;;;;;;23.90;22.58;;;;;;;;;;5043213;28;20041;-66
2022/07/25 06:22:08;;;;;;;20.08;18.92;;;;;;;;;;5044756;28;20082;-65
2022/07/25 06:24:34;;;;;;;31.25;29.55;;;;;;;;;;5043772;28;20094;-66
2022/07/25 06:26:59;;;;;;;31.40;29.73;;;;;;;;;;5039132;28;20041;-65
2022/07/25 06:29:25;;;;;;;29.77;28.10;;;;;;;;;;5040598;28;20047;-67
2022/07/25 06:31:50;;;;;;;30.10;28.50;;;;;;;;;;5036119;28;20046;-67
2022/07/25 06:34:15;;;;;;;31.20;29.52;;;;;;;;;;5041243;28;20483;-67
2022/07/25 06:36:41;;;;;;;33.38;31.45;;;;;;;;;;5035708;28;20410;-67
2022/07/25 06:39:06;;;;;;;28.98;27.38;;;;;;;;;;5033991;28;20039;-66
2022/07/25 06:41:32;;;;;;;32.83;31.05;;;;;;;;;;5036796;28;20429;-66
2022/07/25 06:43:57;;;;;;;27.60;26.08;;;;;;;;;;5036099;28;20107;-66
2022/07/25 06:46:23;;;;;;;27.98;26.42;;;;;;;;;;5038518;28;20124;-66
2022/07/25 06:48:48;;;;;;;32.50;30.77;;;;;;;;;;5036758;28;20135;-66
2022/07/25 06:51:13;;;;;;;36.78;34.83;;;;;;;;;;5038260;28;20383;-66
2022/07/25 06:53:39;;;;;;;35.63;33.78;;;;;;;;;;5038188;28;20041;-66
2022/07/25 06:56:05;;;;;;;46.55;44.13;;;;;;;;;;5040668;28;20033;-66
2022/07/25 06:58:30;;;;;;;52.15;49.45;;;;;;;;;;5040195;28;20044;-67
2022/07/25 07:00:55;;;;;;;42.65;40.25;;;;;;;;;;5038185;28;20056;-67
2022/07/25 07:03:21;;;;;;;50.05;47.38;;;;;;;;;;5039646;28;20430;-67
2022/07/25 07:05:46;;;;;;;47.13;44.75;;;;;;;;;;5035695;28;20037;-67
2022/07/25 07:08:11;;;;;;;56.08;53.22;;;;;;;;;;5040007;28;20025;-67
2022/07/25 07:10:38;;;;;;;70.25;66.68;;;;;;;;;;5035319;28;20040;-68
2022/07/25 07:13:09;;;;;;;56.17;53.22;;;;;;;;;;5036464;28;20044;-68
2022/07/25 07:15:35;;;;;;;67.68;64.18;;;;;;;;;;5037651;28;20121;-68
2022/07/25 07:18:00;;;;;;;73.53;69.75;;;;;;;;;;5042613;28;20140;-70
2022/07/25 07:20:26;;;;;;;81.15;77.05;;;;;;;;;;5042113;28;20037;-70
2022/07/25 07:22:51;;;;;;;111.03;105.43;;;;;;;;;;5040660;28;20051;-70
2022/07/25 07:25:19;;;;;;;91.07;86.47;;;;;;;;;;5042894;28;20040;-69
2022/07/25 07:27:45;;;;;;;98.97;94.03;;;;;;;;;;5040338;28;20035;-68
2022/07/25 07:30:13;;;;;;;117.05;111.18;;;;;;;;;;5042493;28;20408;-68
2022/07/25 07:32:40;;;;;;;93.47;88.82;;;;;;;;;;5041192;28;20658;-68
2022/07/25 07:35:05;;;;;;;137.85;130.95;;;;;;;;;;5040619;28;20025;-69
2022/07/25 07:37:30;;;;;;;135.63;128.82;;;;;;;;;;5041233;28;20421;-66
2022/07/25 07:39:56;;;;;;;128.73;122.28;;;;;;;;;;5039004;28;20035;-66
2022/07/25 07:42:21;;;;;;;129.65;123.15;;;;;;;;;;5037018;28;20029;-66
2022/07/25 07:44:47;;;;;;;135.95;129.15;;;;;;;;;;5039577;28;20513;-69
2022/07/25 07:47:12;;;;;;;124.75;118.50;;;;;;;;;;5038604;28;20036;-66
2022/07/25 07:49:37;;;;;;;126.55;120.18;;;;;;;;;;5046823;28;20048;-67
2022/07/25 07:52:03;;;;;;;108.10;102.68;;;;;;;;;;5040677;28;20036;-66
2022/07/25 07:57:12;;;;;;;102.40;97.28;;;;;;;;;;5044615;28;20025;-66
2022/07/25 07:59:38;;;;;;;117.97;112.05;;;;;;;;;;5040017;28;20032;-66
2022/07/25 08:02:03;;;;;;;67.45;63.95;;;;;;;;;;5038409;28;20453;-66
2022/07/25 08:04:28;;;;;;;67.95;64.47;;;;;;;;;;5043552;28;20041;-66
2022/07/25 08:06:54;;;;;;;67.72;64.28;;;;;;;;;;5041283;28;20055;-66
2022/07/25 08:09:20;;;;;;;73.20;69.28;;;;;;;;;;5039334;28;20523;-64
2022/07/25 08:11:45;;;;;;;70.32;66.32;;;;;;;;;;5038555;28;20033;-64
2022/07/25 08:14:11;;;;;;;73.15;69.32;;;;;;;;;;5042851;28;20434;-64
2022/07/25 08:16:36;;;;;;;71.15;67.40;;;;;;;;;;5041479;28;20344;-64
2022/07/25 08:19:02;;;;;;;82.35;78.20;;;;;;;;;;5038850;28;20021;-65
2022/07/25 08:21:27;;;;;;;72.60;68.80;;;;;;;;;;5042466;28;20068;-65
2022/07/25 08:23:53;;;;;;;132.70;126.13;;;;;;;;;;5042995;28;20033;-65
2022/07/25 08:26:18;;;;;;;119.72;113.75;;;;;;;;;;5045275;28;20033;-65
2022/07/25 08:28:44;;;;;;;74.63;70.80;;;;;;;;;;5044158;28;20047;-64
2022/07/25 08:31:09;;;;;;;155.18;147.52;;;;;;;;;;5049578;28;20033;-64
2022/07/25 08:33:35;;;;;;;104.20;98.95;;;;;;;;;;5044784;28;20133;-65
2022/07/25 08:36:00;;;;;;;167.82;159.55;;;;;;;;;;5045225;28;20044;-67
2022/07/25 08:38:27;;;;;;;220.15;209.45;;;;;;;;;;5044551;28;20021;-65
2022/07/25 08:40:54;;;;;;;80.28;76.25;;;;;;;;;;5041774;28;20558;-64
2022/07/25 08:43:20;;;;;;;212.35;201.88;;;;;;;;;;5042605;28;20059;-63
2022/07/25 08:45:47;;;;;;;238.48;226.68;;;;;;;;;;5041564;28;20116;-63
2022/07/25 08:48:16;;;;;;;275.30;261.80;;;;;;;;;;5042259;28;20490;-64
2022/07/25 08:50:42;;;;;;;292.48;278.08;;;;;;;;;;5046171;28;20091;-64
2022/07/25 08:53:08;;;;;;;287.98;273.73;;;;;;;;;;5041920;28;20034;-66
2022/07/25 08:55:33;;;;;;;299.25;284.55;;;;;;;;;;5042786;28;20440;-65
2022/07/25 08:57:59;;;;;;;293.83;279.33;;;;;;;;;;5048128;28;20059;-66
2022/07/25 09:00:27;;;;;;;285.48;271.48;;;;;;;;;;5046917;28;20079;-65
2022/07/25 09:03:00;;;;;;;292.73;278.48;;;;;;;;;;5043263;28;20048;-66
2022/07/25 09:05:28;;;;;;;295.00;280.55;;;;;;;;;;5044791;28;20642;-65
2022/07/25 09:07:55;;;;;;;293.33;278.90;;;;;;;;;;5046899;28;20462;-66
2022/07/25 09:10:26;;;;;;;292.48;278.10;;;;;;;;;;5043781;28;20060;-68
2022/07/25 09:13:00;;;;;;;295.17;280.67;;;;;;;;;;5043796;28;20045;-63
2022/07/25 09:15:34;;;;;;;286.63;272.58;;;;;;;;;;5043751;28;20050;-65
2022/07/25 09:18:02;;;;;;;295.48;280.92;;;;;;;;;;5042749;28;20108;-65
2022/07/25 09:20:47;;;;;;;299.23;284.55;;;;;;;;;;5041513;28;20037;-65
2022/07/25 09:23:35;;;;;;;272.05;258.75;;;;;;;;;;5042208;28;20633;-63
2022/07/25 09:26:05;;;;;;;293.75;279.38;;;;;;;;;;5045716;28;20132;-62
2022/07/25 09:28:38;;;;;;;284.35;270.38;;;;;;;;;;5045605;28;20033;-63
2022/07/25 09:31:03;;;;;;;299.00;284.05;;;;;;;;;;5046348;28;20033;-62
2022/07/25 09:33:29;;;;;;;300.98;286.23;;;;;;;;;;5044262;28;20516;-62
2022/07/25 09:35:55;;;;;;;299.33;284.67;;;;;;;;;;5042622;28;20040;-63
2022/07/25 09:38:21;;;;;;;275.00;261.40;;;;;;;;;;5040104;28;20116;-63
2022/07/25 09:40:55;;;;;;;294.95;280.38;;;;;;;;;;5048740;28;20034;-63
2022/07/25 09:43:22;;;;;;;285.42;271.33;;;;;;;;;;5044872;28;20025;-64
2022/07/25 09:45:50;;;;;;;300.63;285.77;;;;;;;;;;5042039;28;20425;-64
2022/07/25 09:48:18;;;;;;;313.35;297.40;;;;;;;;;;5039321;28;20063;-64
2022/07/25 09:50:44;;;;;;;288.50;274.15;;;;;;;;;;5040972;28;20032;-64
2022/07/25 09:53:10;;;;;;;244.05;231.55;;;;;;;;;;5044967;28;20382;-64
2022/07/25 09:55:36;;;;;;;214.70;204.07;;;;;;;;;;5042232;28;20125;-68
2022/07/25 09:58:01;;;;;;;229.38;218.05;;;;;;;;;;5042434;28;20112;-66
2022/07/25 10:00:28;;;;;;;235.32;223.63;;;;;;;;;;5040543;28;20020;-64
2022/07/25 10:02:53;;;;;;;253.18;240.57;;;;;;;;;;5039538;28;20077;-64
2022/07/25 10:05:41;;;;;;;218.90;207.98;;;;;;;;;;5044357;28;20057;-63
2022/07/25 10:08:07;;;;;;;184.93;175.68;;;;;;;;;;5048194;28;20033;-64
2022/07/25 10:10:39;;;;;;;205.63;195.35;;;;;;;;;;5041340;28;20072;-64
2022/07/25 10:13:16;;;;;;;258.15;245.32;;;;;;;;;;5043457;28;20024;-63
2022/07/25 10:15:50;;;;;;;150.65;143.07;;;;;;;;;;5041409;28;20040;-65
2022/07/25 10:18:24;;;;;;;145.10;137.15;;;;;;;;;;5041460;28;20098;-63
2022/07/25 10:20:53;;;;;;;155.75;147.63;;;;;;;;;;5041767;28;20052;-63
2022/07/25 10:23:24;;;;;;;130.23;123.70;;;;;;;;;;5043229;28;20048;-63
2022/07/25 10:26:12;;;;;;;163.95;155.73;;;;;;;;;;5044009;28;20078;-64
2022/07/25 10:28:44;;;;;;;132.63;125.97;;;;;;;;;;5044357;28;20091;-62
2022/07/25 10:31:34;;;;;;;120.13;114.13;;;;;;;;;;5043236;28;20029;-63
2022/07/25 10:34:08;;;;;;;119.25;113.30;;;;;;;;;;5035232;28;20075;-63
2022/07/25 10:36:46;;;;;;;128.48;122.07;;;;;;;;;;5044394;28;20040;-62
2022/07/25 10:39:14;;;;;;;121.38;115.35;;;;;;;;;;5044172;28;20037;-62
2022/07/25 10:41:42;;;;;;;110.07;104.60;;;;;;;;;;5043088;28;20222;-62
2022/07/25 10:44:13;;;;;;;104.63;99.38;;;;;;;;;;5055375;28;20032;-63
2022/07/25 10:46:38;;;;;;;102.05;96.80;;;;;;;;;;5039737;28;20029;-63
2022/07/25 10:49:06;;;;;;;94.78;90.07;;;;;;;;;;5040621;28;20047;-63
2022/07/25 10:51:34;;;;;;;101.80;96.70;;;;;;;;;;5046333;28;20100;-63
2022/07/25 10:54:11;;;;;;;137.38;130.48;;;;;;;;;;5042559;28;20033;-64
2022/07/25 10:56:49;;;;;;;140.48;133.38;;;;;;;;;;5040946;28;20148;-67
2022/07/25 10:59:37;;;;;;;146.45;139.15;;;;;;;;;;5043803;28;20032;-64
2022/07/25 11:02:07;;;;;;;141.67;134.53;;;;;;;;;;5041610;28;20025;-64
2022/07/25 11:04:33;;;;;;;127.07;120.70;;;;;;;;;;5042037;28;20027;-62
2022/07/25 11:07:14;;;;;;;123.80;117.63;;;;;;;;;;5042506;28;20033;-61
2022/07/25 11:09:43;;;;;;;155.13;147.35;;;;;;;;;;5040023;28;20081;-62
2022/07/25 11:12:14;;;;;;;159.35;151.35;;;;;;;;;;5045462;28;20044;-63
2022/07/25 11:14:41;;;;;;;161.13;153.07;;;;;;;;;;5029537;28;20084;-63
2022/07/25 11:17:12;;;;;;;145.32;137.75;;;;;;;;;;5043469;28;20067;-61
2022/07/25 11:19:37;;;;;;;137.07;130.23;;;;;;;;;;5039543;28;20071;-62
2022/07/25 11:22:06;;;;;;;177.18;168.35;;;;;;;;;;5040270;28;20068;-62
2022/07/25 11:24:39;;;;;;;143.77;136.57;;;;;;;;;;5040396;28;20021;-61
2022/07/25 11:27:05;;;;;;;138.07;130.88;;;;;;;;;;5042999;28;20025;-63
2022/07/25 11:29:31;;;;;;;135.05;128.32;;;;;;;;;;5043828;28;20033;-63
2022/07/25 11:31:59;;;;;;;149.93;142.48;;;;;;;;;;5033899;28;20039;-62
2022/07/25 11:34:27;;;;;;;117.30;111.50;;;;;;;;;;5039147;28;20395;-66
2022/07/25 11:36:56;;;;;;;174.88;166.15;;;;;;;;;;5039589;28;20029;-63
2022/07/25 11:39:27;;;;;;;130.35;123.88;;;;;;;;;;5038119;28;20520;-62
2022/07/25 11:42:08;;;;;;;134.27;127.55;;;;;;;;;;5041069;28;20067;-67
2022/07/25 11:44:45;;;;;;;112.43;106.88;;;;;;;;;;5035313;28;20028;-66
2022/07/25 11:47:31;;;;;;;95.20;90.50;;;;;;;;;;5037592;28;20506;-66
2022/07/25 11:50:01;;;;;;;92.15;87.53;;;;;;;;;;5035920;28;20436;-65
2022/07/25 11:52:31;;;;;;;72.32;68.72;;;;;;;;;;5039687;28;20036;-65
2022/07/25 11:55:02;;;;;;;76.95;73.05;;;;;;;;;;5039349;28;20052;-62
2022/07/25 11:57:30;;;;;;;72.50;68.88;;;;;;;;;;5036687;28;20029;-64
2022/07/25 11:59:58;;;;;;;76.00;72.22;;;;;;;;;;5037876;28;20025;-63
2022/07/25 12:02:32;;;;;;;78.90;74.97;;;;;;;;;;5037854;28;20041;-64
2022/07/25 12:05:00;;;;;;;79.13;75.18;;;;;;;;;;5035845;28;20029;-63
2022/07/25 12:07:53;;;;;;;88.70;84.32;;;;;;;;;;5037782;28;20060;-63
2022/07/25 12:10:23;;;;;;;77.95;74.05;;;;;;;;;;5033858;28;20042;-64
2022/07/25 12:12:54;;;;;;;73.22;69.55;;;;;;;;;;5037068;28;20052;-63
2022/07/25 12:15:39;;;;;;;76.97;73.18;;;;;;;;;;5037324;28;20064;-62
2022/07/25 12:18:08;;;;;;;77.63;73.72;;;;;;;;;;5038586;28;20044;-63
2022/07/25 12:20:42;;;;;;;72.70;69.07;;;;;;;;;;5035510;28;20037;-63
2022/07/25 12:23:10;;;;;;;73.40;69.72;;;;;;;;;;5032918;28;20027;-64
2022/07/25 12:25:38;;;;;;;79.82;75.85;;;;;;;;;;5035773;28;20025;-64
2022/07/25 12:28:04;;;;;;;77.50;73.63;;;;;;;;;;5032870;28;20033;-63
2022/07/25 12:30:31;;;;;;;84.13;79.93;;;;;;;;;;5036013;28;20106;-61
2022/07/25 12:32:58;;;;;;;76.53;72.70;;;;;;;;;;5036930;28;20618;-61
2022/07/25 12:35:24;;;;;;;80.72;76.63;;;;;;;;;;5036632;28;20128;-58
2022/07/25 12:37:50;;;;;;;86.18;81.90;;;;;;;;;;5037966;28;20033;-58
2022/07/25 12:40:16;;;;;;;66.32;62.92;;;;;;;;;;5039016;28;20098;-57
2022/07/25 12:42:42;;;;;;;61.30;58.20;;;;;;;;;;5032894;28;20037;-57
2022/07/25 12:45:08;;;;;;;62.72;59.42;;;;;;;;;;5037443;28;20025;-57
2022/07/25 12:47:34;;;;;;;63.03;59.83;;;;;;;;;;5038370;28;20483;-57
2022/07/25 12:50:00;;;;;;;71.68;68.10;;;;;;;;;;5032931;28;20041;-56
2022/07/25 12:52:26;;;;;;;86.40;82.10;;;;;;;;;;5037820;28;20025;-57
2022/07/25 12:54:52;;;;;;;82.03;77.95;;;;;;;;;;5039625;28;20029;-58
2022/07/25 12:57:19;;;;;;;86.47;82.18;;;;;;;;;;5035483;28;20040;-57
2022/07/25 12:59:45;;;;;;;85.80;81.20;;;;;;;;;;5032726;28;20102;-58
2022/07/25 13:02:11;;;;;;;92.22;87.65;;;;;;;;;;5036154;28;20029;-57
2022/07/25 13:04:36;;;;;;;90.65;86.15;;;;;;;;;;5034967;28;20418;-59
2022/07/25 13:07:02;;;;;;;97.75;92.95;;;;;;;;;;5032727;28;20455;-57
2022/07/25 13:09:27;;;;;;;93.53;88.80;;;;;;;;;;5037196;28;20033;-59
2022/07/25 13:11:54;;;;;;;91.97;87.28;;;;;;;;;;5033590;28;20040;-59
2022/07/25 13:14:19;;;;;;;89.35;84.85;;;;;;;;;;5038360;28;20025;-60
2022/07/25 13:16:46;;;;;;;90.40;85.93;;;;;;;;;;5042974;28;20533;-59
2022/07/25 13:19:12;;;;;;;87.93;83.10;;;;;;;;;;5040017;28;20037;-58
2022/07/25 13:21:38;;;;;;;89.72;85.28;;;;;;;;;;5036645;28;20227;-58
2022/07/25 13:24:04;;;;;;;84.20;80.00;;;;;;;;;;5037309;28;20501;-57
2022/07/25 13:26:30;;;;;;;84.10;79.90;;;;;;;;;;5038824;28;20043;-57
2022/07/25 13:28:56;;;;;;;83.72;79.57;;;;;;;;;;5041494;28;20029;-57
2022/07/25 13:31:22;;;;;;;81.90;77.78;;;;;;;;;;5039556;28;20035;-58
2022/07/25 13:33:48;;;;;;;76.82;73.00;;;;;;;;;;5040238;28;20375;-57
2022/07/25 13:36:14;;;;;;;90.40;85.90;;;;;;;;;;5039381;28;20040;-57
2022/07/25 13:38:40;;;;;;;90.18;85.70;;;;;;;;;;5039879;28;20028;-57
2022/07/25 13:41:06;;;;;;;99.25;94.35;;;;;;;;;;5039376;28;20033;-57
2022/07/25 13:43:32;;;;;;;95.50;90.72;;;;;;;;;;5036934;28;20386;-58
2022/07/25 13:45:57;;;;;;;93.20;88.50;;;;;;;;;;5038257;28;20036;-58
2022/07/25 13:48:22;;;;;;;104.50;99.32;;;;;;;;;;5037829;28;20037;-57
2022/07/25 13:50:48;;;;;;;109.60;104.20;;;;;;;;;;5040245;28;20577;-57
2022/07/25 13:53:13;;;;;;;97.65;92.70;;;;;;;;;;5038486;28;20821;-58
2022/07/25 13:55:38;;;;;;;105.70;100.50;;;;;;;;;;5037591;28;20406;-57
2022/07/25 13:58:04;;;;;;;100.05;95.05;;;;;;;;;;5040766;28;20485;-58
2022/07/25 14:00:30;;;;;;;102.88;97.75;;;;;;;;;;5041691;28;20481;-57
2022/07/25 14:02:55;;;;;;;98.00;93.15;;;;;;;;;;5040593;28;20068;-57
2022/07/25 14:05:20;;;;;;;105.15;99.95;;;;;;;;;;5038164;28;20602;-57
2022/07/25 14:07:46;;;;;;;107.28;101.97;;;;;;;;;;5033539;28;20068;-57
2022/07/25 14:10:11;;;;;;;105.15;99.95;;;;;;;;;;5040549;28;20379;-57
2022/07/25 14:12:38;;;;;;;114.00;108.32;;;;;;;;;;5039182;28;20101;-57